Time;durP1;ratioP1;P1;durP2;ratioP2;P2;SDS_P1;SDS_P2;PMS_P1;PMS_P2;Temp;Humidity;BMP_temperature;BMP_pressure;BME280_temperature;BME280_humidity;BME280_pressure;Samples;Min_cycle;Max_cycle;Signal;HPM_P1;HPM_P2
2022/08/10 00:02:16;;;;;;;0.90;0.90;;;21.20;99.90;;;;;;5014653;28;20184;-88
2022/08/10 00:04:42;;;;;;;1.35;1.20;;;21.00;99.90;;;;;;5013618;28;20161;-81
2022/08/10 00:07:08;;;;;;;1.95;1.10;;;21.10;99.90;;;;;;5013350;28;20652;-80
2022/08/10 00:09:33;;;;;;;1.55;0.82;;;21.00;99.90;;;;;;5013429;28;20200;-79
2022/08/10 00:11:59;;;;;;;1.10;1.00;;;20.90;99.90;;;;;;5013323;28;20169;-81
2022/08/10 00:14:25;;;;;;;4.50;1.20;;;20.70;99.90;;;;;;5013197;28;20164;-81
2022/08/10 00:16:50;;;;;;;1.73;1.30;;;20.70;99.90;;;;;;5013400;28;20590;-80
2022/08/10 00:19:16;;;;;;;2.75;1.00;;;20.70;99.90;;;;;;5013678;28;20176;-89
2022/08/10 00:21:42;;;;;;;1.23;1.13;;;20.80;99.90;;;;;;5013794;28;20584;-81
2022/08/10 00:24:08;;;;;;;1.27;1.17;;;20.80;99.90;;;;;;5013503;28;20173;-81
2022/08/10 00:26:33;;;;;;;1.88;1.30;;;20.60;99.90;;;;;;5013090;28;20196;-81
2022/08/10 00:28:59;;;;;;;2.28;1.30;;;20.60;99.90;;;;;;5012220;28;20179;-81
2022/08/10 00:31:24;;;;;;;2.70;1.10;;;20.60;99.90;;;;;;5012941;28;20181;-86
2022/08/10 00:33:50;;;;;;;1.40;1.30;;;20.50;99.90;;;;;;5013771;28;20183;-83
2022/08/10 00:36:15;;;;;;;8.13;1.17;;;20.60;99.90;;;;;;5012519;28;20183;-81
2022/08/10 00:38:41;;;;;;;3.28;1.20;;;20.50;99.90;;;;;;5012854;28;20268;-80
2022/08/10 00:41:07;;;;;;;1.83;1.13;;;20.50;99.90;;;;;;5016165;28;20180;-81
2022/08/10 00:43:32;;;;;;;2.60;1.38;;;20.60;99.90;;;;;;5013212;28;20176;-82
2022/08/10 00:45:58;;;;;;;5.75;1.33;;;20.50;99.90;;;;;;5013532;28;20168;-80
2022/08/10 00:48:23;;;;;;;2.03;1.33;;;20.60;99.90;;;;;;5012610;28;20298;-80
2022/08/10 00:50:49;;;;;;;7.03;1.30;;;20.50;99.90;;;;;;5012318;28;20319;-80
2022/08/10 00:53:15;;;;;;;4.75;1.20;;;20.50;99.90;;;;;;5012842;28;20210;-80
2022/08/10 00:55:41;;;;;;;3.78;1.25;;;20.40;99.90;;;;;;5013000;28;20637;-81
2022/08/10 00:58:07;;;;;;;1.58;1.15;;;20.30;99.90;;;;;;5012652;28;20672;-82
2022/08/10 01:00:33;;;;;;;1.45;1.33;;;20.30;99.90;;;;;;5013172;28;20184;-81
2022/08/10 01:02:59;;;;;;;1.42;1.33;;;20.40;99.90;;;;;;5013260;28;20165;-81
2022/08/10 01:05:25;;;;;;;3.42;1.50;;;20.30;99.90;;;;;;5013139;28;20183;-80
2022/08/10 01:08:18;;;;;;;1.80;1.30;;;20.40;99.90;;;;;;5011811;28;20680;-81
2022/08/10 01:11:10;;;;;;;1.60;1.00;;;20.20;99.90;;;;;;5011951;28;20290;-83
2022/08/10 01:13:41;;;;;;;3.35;1.48;;;20.20;99.90;;;;;;5010108;28;20188;-86
2022/08/10 01:16:21;;;;;;;4.43;1.30;;;20.10;99.90;;;;;;5012686;28;20176;-82
2022/08/10 01:18:50;;;;;;;2.03;1.60;;;20.10;99.90;;;;;;5012879;28;20164;-87
2022/08/10 01:21:39;;;;;;;6.80;1.42;;;20.10;99.90;;;;;;5012756;28;20191;-88
2022/08/10 01:24:27;;;;;;;2.72;1.40;;;20.20;99.90;;;;;;5013061;28;20181;-80
2022/08/10 01:26:58;;;;;;;1.02;1.00;;;20.20;99.90;;;;;;5012493;28;20287;-88
2022/08/10 01:29:55;;;;;;;1.50;1.00;;;20.20;99.90;;;;;;5012775;28;20173;-81
2022/08/10 01:32:35;;;;;;;2.53;1.27;;;20.20;99.90;;;;;;5011386;28;20169;-82
2022/08/10 01:35:10;;;;;;;5.03;1.40;;;20.10;99.90;;;;;;5012521;28;20180;-82
2022/08/10 01:37:42;;;;;;;1.38;1.27;;;20.10;99.90;;;;;;5012654;28;20656;-87
2022/08/10 01:40:12;;;;;;;1.42;1.23;;;20.00;99.90;;;;;;5011662;28;20220;-88
2022/08/10 01:42:41;;;;;;;2.05;1.38;;;20.00;99.90;;;;;;5013634;28;20251;-80
2022/08/10 01:45:09;;;;;;;2.55;1.35;;;19.90;99.90;;;;;;5013086;28;20167;-81
2022/08/10 01:50:43;;;;;;;1.60;1.30;;;20.00;99.90;;;;;;5012981;28;20203;-80
2022/08/10 01:53:22;;;;;;;3.20;1.52;;;19.90;99.90;;;;;;5012731;28;20168;-82
2022/08/10 01:55:50;;;;;;;3.83;1.35;;;19.70;99.90;;;;;;5012261;28;20167;-80
2022/08/10 01:58:18;;;;;;;1.27;1.17;;;19.60;99.90;;;;;;5012383;28;20165;-86
2022/08/10 02:00:47;;;;;;;1.27;1.17;;;19.50;99.90;;;;;;5011318;28;20865;-80
2022/08/10 02:03:15;;;;;;;2.78;1.45;;;19.60;99.90;;;;;;5012878;28;20275;-84
2022/08/10 02:05:43;;;;;;;2.22;1.30;;;19.60;99.90;;;;;;5012210;28;20173;-79
2022/08/10 02:08:13;;;;;;;1.05;1.05;;;19.60;99.90;;;;;;5011175;28;20208;-80
2022/08/10 02:10:40;;;;;;;3.53;1.40;;;19.60;99.90;;;;;;5013421;28;20181;-81
2022/08/10 02:13:07;;;;;;;2.58;1.55;;;19.70;99.90;;;;;;5015175;28;20168;-80
2022/08/10 02:15:35;;;;;;;2.13;1.10;;;19.70;99.90;;;;;;5015608;28;20180;-80
2022/08/10 02:18:05;;;;;;;3.20;1.40;;;19.70;99.90;;;;;;5015591;28;20175;-79
2022/08/10 02:20:48;;;;;;;1.55;1.40;;;19.90;99.90;;;;;;5015068;28;20271;-81
2022/08/10 02:23:23;;;;;;;5.38;1.77;;;19.80;99.90;;;;;;5013712;28;20200;-81
2022/08/10 02:25:51;;;;;;;7.20;1.45;;;19.50;99.90;;;;;;5014126;28;20164;-80
2022/08/10 02:28:19;;;;;;;5.75;1.63;;;19.60;99.90;;;;;;5015849;28;20215;-84
2022/08/10 02:30:47;;;;;;;11.20;1.83;;;19.60;99.90;;;;;;5015882;28;20664;-87
2022/08/10 02:33:16;;;;;;;5.72;1.48;;;19.50;99.90;;;;;;5015722;28;20169;-87
2022/08/10 02:35:42;;;;;;;1.58;1.38;;;19.50;99.90;;;;;;5015687;28;20176;-87
2022/08/10 02:38:11;;;;;;;2.65;1.40;;;19.50;99.90;;;;;;5015958;28;20315;-87
2022/08/10 02:40:40;;;;;;;5.25;1.70;;;19.50;99.90;;;;;;5015191;28;20262;-80
2022/08/10 02:43:20;;;;;;;4.90;1.38;;;19.30;99.90;;;;;;5014866;28;20686;-80
2022/08/10 02:45:51;;;;;;;1.77;1.55;;;19.50;99.90;;;;;;5014830;28;20164;-80
2022/08/10 02:48:33;;;;;;;2.58;1.80;;;19.40;99.90;;;;;;5014377;28;20290;-80
2022/08/10 02:51:04;;;;;;;6.47;1.77;;;19.40;99.90;;;;;;5014693;28;20267;-81
2022/08/10 02:53:56;;;;;;;2.35;1.70;;;19.40;99.90;;;;;;5013617;28;20196;-83
2022/08/10 02:56:27;;;;;;;7.15;1.88;;;19.20;99.90;;;;;;5010947;28;20679;-81
2022/08/10 02:59:07;;;;;;;5.85;1.98;;;19.20;99.90;;;;;;5014753;28;20176;-81
2022/08/10 03:01:40;;;;;;;5.25;1.60;;;19.30;99.90;;;;;;5013155;28;20527;-80
2022/08/10 03:04:10;;;;;;;1.70;1.60;;;19.20;99.90;;;;;;5014356;28;20707;-87
2022/08/10 03:06:45;;;;;;;6.05;1.65;;;19.20;99.90;;;;;;5014122;28;20203;-88
2022/08/10 03:09:14;;;;;;;8.73;2.00;;;19.30;99.90;;;;;;5013750;28;20637;-86
2022/08/10 03:11:42;;;;;;;4.85;2.13;;;19.40;99.90;;;;;;5014774;28;20272;-85
2022/08/10 03:14:09;;;;;;;6.97;1.83;;;19.30;99.90;;;;;;5014801;28;20517;-81
2022/08/10 03:16:36;;;;;;;4.40;2.13;;;19.20;99.90;;;;;;5014895;28;20157;-83
2022/08/10 03:19:04;;;;;;;7.80;1.98;;;19.10;99.90;;;;;;5014378;28;20196;-88
2022/08/10 03:21:31;;;;;;;1.50;1.40;;;19.00;99.90;;;;;;5014387;28;20192;-81
2022/08/10 03:24:01;;;;;;;17.85;2.20;;;19.00;99.90;;;;;;5014438;28;20192;-80
2022/08/10 03:26:29;;;;;;;12.35;2.28;;;19.00;99.90;;;;;;5013414;28;20227;-81
2022/08/10 03:28:56;;;;;;;2.58;1.90;;;19.10;99.90;;;;;;5014436;28;20226;-80
2022/08/10 03:31:22;;;;;;;5.00;1.63;;;18.90;99.90;;;;;;5013275;28;20216;-80
2022/08/10 03:33:48;;;;;;;2.42;1.83;;;18.90;99.90;;;;;;5014193;28;20645;-87
2022/08/10 03:36:14;;;;;;;3.83;1.77;;;19.00;99.90;;;;;;5015121;28;20157;-82
2022/08/10 03:38:42;;;;;;;2.70;1.88;;;19.00;99.90;;;;;;5013184;28;20185;-81
2022/08/10 03:41:12;;;;;;;2.33;1.85;;;18.90;99.90;;;;;;5014895;28;20246;-87
2022/08/10 03:43:39;;;;;;;2.95;1.92;;;18.90;99.90;;;;;;5013569;28;20165;-86
2022/08/10 03:46:08;;;;;;;2.58;1.73;;;18.90;99.90;;;;;;5014778;28;20226;-80
2022/08/10 03:48:36;;;;;;;2.05;1.85;;;18.80;99.90;;;;;;5014169;28;20234;-85
2022/08/10 03:51:03;;;;;;;2.47;2.08;;;18.70;99.90;;;;;;5013385;28;20751;-80
2022/08/10 03:53:29;;;;;;;3.03;2.13;;;18.70;99.90;;;;;;5012146;28;20273;-80
2022/08/10 03:55:55;;;;;;;3.10;2.30;;;18.70;99.90;;;;;;5013646;28;20247;-80
2022/08/10 03:58:21;;;;;;;3.60;1.90;;;18.70;99.90;;;;;;5018155;28;20164;-81
2022/08/10 04:00:49;;;;;;;2.47;2.28;;;18.80;99.90;;;;;;5013377;28;20562;-81
2022/08/10 04:03:16;;;;;;;2.40;2.15;;;18.90;99.90;;;;;;5012034;28;20168;-81
2022/08/10 04:05:42;;;;;;;5.85;2.00;;;18.90;99.90;;;;;;5013994;28;20187;-81
2022/08/10 04:08:08;;;;;;;2.53;2.33;;;18.70;99.90;;;;;;5015288;28;20208;-89
2022/08/10 04:10:33;;;;;;;4.88;2.40;;;18.60;99.90;;;;;;5013742;28;20675;-81
2022/08/10 04:12:59;;;;;;;3.05;2.47;;;18.50;99.90;;;;;;5013098;28;20196;-82
2022/08/10 04:15:24;;;;;;;3.25;2.17;;;18.40;99.90;;;;;;5012367;28;20176;-81
2022/08/10 04:17:50;;;;;;;3.38;1.85;;;18.50;99.90;;;;;;5013308;28;20172;-81
2022/08/10 04:20:37;;;;;;;6.82;2.90;;;18.60;99.90;;;;;;5012048;28;20234;-85
2022/08/10 04:23:10;;;;;;;7.15;1.95;;;18.50;99.90;;;;;;5013595;28;20176;-81
2022/08/10 04:25:38;;;;;;;5.47;2.50;;;18.50;99.90;;;;;;5013413;28;20200;-82
2022/08/10 04:28:05;;;;;;;6.65;2.38;;;18.20;99.90;;;;;;5011445;28;20199;-81
2022/08/10 04:30:33;;;;;;;5.55;2.17;;;18.30;99.90;;;;;;5011718;28;20250;-83
2022/08/10 04:33:02;;;;;;;2.72;2.53;;;18.30;99.90;;;;;;5012914;28;20486;-88
2022/08/10 04:35:30;;;;;;;7.57;3.03;;;18.30;99.90;;;;;;5013591;28;20164;-81
2022/08/10 04:37:58;;;;;;;6.70;2.15;;;18.50;99.90;;;;;;5013070;28;20164;-82
2022/08/10 04:40:24;;;;;;;4.57;2.22;;;18.60;99.90;;;;;;5013248;28;20200;-81
2022/08/10 04:42:50;;;;;;;3.83;2.17;;;18.60;99.90;;;;;;5012890;28;20969;-82
2022/08/10 04:45:17;;;;;;;3.55;2.20;;;18.40;99.90;;;;;;5013527;28;20243;-85
2022/08/10 04:47:42;;;;;;;4.07;2.20;;;18.30;99.90;;;;;;5013465;28;20215;-81
2022/08/10 04:50:08;;;;;;;4.15;2.65;;;18.40;99.90;;;;;;5012752;28;20184;-89
2022/08/10 04:52:34;;;;;;;4.97;3.28;;;18.50;99.90;;;;;;5012424;28;20171;-81
2022/08/10 04:54:59;;;;;;;3.25;2.38;;;18.50;99.90;;;;;;5013182;28;20164;-83
2022/08/10 04:57:25;;;;;;;9.30;2.55;;;18.60;99.90;;;;;;5012247;28;20169;-82
2022/08/10 04:59:51;;;;;;;7.35;2.30;;;18.50;99.90;;;;;;5012107;28;20188;-81
2022/08/10 05:02:16;;;;;;;5.25;2.67;;;18.30;99.90;;;;;;5013891;28;20216;-87
2022/08/10 05:04:42;;;;;;;5.20;2.70;;;18.40;99.90;;;;;;5012951;28;20192;-82
2022/08/10 05:07:10;;;;;;;8.50;2.70;;;18.50;99.90;;;;;;5013849;28;20223;-83
2022/08/10 05:09:40;;;;;;;5.35;2.45;;;18.60;99.90;;;;;;5013007;28;20208;-81
2022/08/10 05:12:06;;;;;;;7.57;3.33;;;18.60;99.90;;;;;;5013415;28;20319;-89
2022/08/10 05:14:32;;;;;;;3.63;2.60;;;18.70;99.90;;;;;;5013338;28;20168;-86
2022/08/10 05:16:58;;;;;;;4.63;2.65;;;18.60;99.90;;;;;;5011786;28;20176;-86
2022/08/10 05:19:25;;;;;;;5.00;3.03;;;18.70;99.90;;;;;;5013610;28;20245;-83
2022/08/10 05:21:51;;;;;;;2.55;2.35;;;18.60;99.90;;;;;;5013568;28;20164;-85
2022/08/10 05:24:16;;;;;;;8.95;3.10;;;18.60;99.90;;;;;;5014350;28;20165;-81
2022/08/10 05:26:42;;;;;;;5.65;2.85;;;18.70;99.90;;;;;;5013935;28;20876;-91
2022/08/10 05:29:07;;;;;;;6.68;3.15;;;18.70;99.90;;;;;;5016243;28;20655;-80
2022/08/10 05:31:33;;;;;;;3.60;2.72;;;18.90;99.90;;;;;;5014556;28;20193;-92
2022/08/10 05:33:59;;;;;;;6.88;2.88;;;19.00;99.90;;;;;;5014478;28;20204;-88
2022/08/10 05:36:26;;;;;;;5.22;3.10;;;19.00;99.90;;;;;;5014290;28;20161;-91
2022/08/10 05:38:53;;;;;;;4.78;2.97;;;18.70;99.90;;;;;;5014010;28;20215;-94
2022/08/10 05:41:19;;;;;;;3.67;3.00;;;18.80;99.90;;;;;;5014063;28;20188;-93
2022/08/10 05:43:45;;;;;;;6.47;3.45;;;18.80;99.90;;;;;;5014322;28;20175;-82
2022/08/10 05:46:11;;;;;;;13.00;3.30;;;19.00;99.90;;;;;;5028437;28;20156;-85
2022/08/10 05:48:38;;;;;;;7.80;3.13;;;19.00;99.90;;;;;;5037043;28;20189;-80
2022/08/10 05:51:04;;;;;;;3.75;3.25;;;19.00;99.90;;;;;;5038918;28;20189;-79
2022/08/10 05:53:32;;;;;;;4.35;2.75;;;19.20;99.90;;;;;;5038664;28;20247;-88
2022/08/10 05:55:58;;;;;;;6.47;3.10;;;19.20;99.90;;;;;;5039700;28;20156;-89
2022/08/10 05:58:24;;;;;;;6.18;3.78;;;19.30;99.90;;;;;;5039016;28;20247;-94
2022/08/10 06:00:53;;;;;;;3.30;2.85;;;19.20;99.90;;;;;;5038167;28;20195;-84
2022/08/10 06:03:43;;;;;;;9.48;3.00;;;19.30;99.90;;;;;;5032304;28;20180;-83
2022/08/10 06:06:10;;;;;;;4.25;3.10;;;19.30;99.90;;;;;;5017496;28;20191;-82
2022/08/10 06:08:39;;;;;;;7.28;3.50;;;19.20;99.90;;;;;;5020317;28;20215;-82
2022/08/10 06:11:06;;;;;;;4.22;3.25;;;19.10;99.90;;;;;;5018037;28;20272;-81
2022/08/10 06:16:20;;;;;;;5.57;3.47;;;19.10;99.90;;;;;;5023489;28;20163;-82
2022/08/10 06:18:47;;;;;;;14.75;4.38;;;19.20;99.90;;;;;;5022617;28;20196;-84
2022/08/10 06:21:15;;;;;;;10.23;4.13;;;19.20;99.90;;;;;;5020137;28;20211;-84
2022/08/10 06:23:42;;;;;;;17.00;4.50;;;19.30;99.90;;;;;;5016373;28;20652;-83
2022/08/10 06:26:08;;;;;;;9.23;4.05;;;19.50;99.90;;;;;;5014455;28;20644;-84
2022/08/10 06:28:38;;;;;;;11.23;3.88;;;19.40;99.90;;;;;;5014076;28;20208;-82
2022/08/10 06:31:05;;;;;;;9.02;4.40;;;19.40;99.90;;;;;;5013874;28;20203;-82
2022/08/10 06:33:34;;;;;;;13.18;4.65;;;19.60;99.90;;;;;;5013781;28;20173;-82
2022/08/10 06:36:01;;;;;;;4.15;3.83;;;19.80;99.90;;;;;;5013836;28;20163;-83
2022/08/10 06:38:30;;;;;;;12.98;4.13;;;19.90;99.90;;;;;;5013807;28;20646;-83
2022/08/10 06:40:59;;;;;;;12.07;3.97;;;19.90;99.90;;;;;;5014465;28;20195;-83
2022/08/10 06:43:26;;;;;;;14.35;4.65;;;19.90;99.90;;;;;;5013716;28;20252;-85
2022/08/10 06:45:59;;;;;;;7.72;4.00;;;19.80;99.90;;;;;;5013598;28;20164;-83
2022/08/10 06:48:32;;;;;;;10.57;4.40;;;19.90;99.90;;;;;;5013406;28;20215;-83
2022/08/10 06:51:04;;;;;;;14.27;4.63;;;20.10;99.90;;;;;;5013572;28;20185;-82
2022/08/10 06:53:38;;;;;;;8.38;3.40;;;20.00;99.90;;;;;;5013528;28;20211;-82
2022/08/10 06:56:10;;;;;;;15.02;3.72;;;20.30;99.90;;;;;;5013184;28;20176;-87
2022/08/10 06:58:42;;;;;;;8.93;4.38;;;20.50;99.90;;;;;;5016239;28;20187;-82
2022/08/10 07:01:17;;;;;;;14.05;4.18;;;20.80;99.90;;;;;;5023245;28;20588;-85
2022/08/10 07:04:07;;;;;;;8.43;4.30;;;20.60;99.90;;;;;;5027431;28;20162;-81
2022/08/10 07:06:35;;;;;;;33.70;4.80;;;20.50;99.90;;;;;;5020526;28;20207;-83
2022/08/10 07:09:02;;;;;;;10.48;4.15;;;20.60;99.90;;;;;;5014649;28;20199;-82
2022/08/10 07:11:30;;;;;;;4.32;3.92;;;20.70;99.90;;;;;;5014721;28;20188;-83
2022/08/10 07:13:59;;;;;;;14.02;3.88;;;20.80;99.90;;;;;;5014547;28;20247;-82
2022/08/10 07:16:27;;;;;;;8.02;4.40;;;20.90;99.90;;;;;;5014105;28;20188;-79
2022/08/10 07:18:55;;;;;;;18.83;4.95;;;20.90;99.90;;;;;;5012850;28;20194;-80
2022/08/10 07:21:23;;;;;;;18.05;4.55;;;21.10;99.90;;;;;;5014443;28;20192;-86
2022/08/10 07:23:50;;;;;;;6.90;3.90;;;21.30;99.90;;;;;;5012904;28;20184;-83
2022/08/10 07:26:18;;;;;;;4.90;3.60;;;21.70;99.90;;;;;;5013383;28;20177;-83
2022/08/10 07:28:44;;;;;;;5.68;3.70;;;22.30;99.90;;;;;;5014521;28;20527;-83
2022/08/10 07:31:12;;;;;;;4.00;3.35;;;22.80;99.90;;;;;;5013032;28;20188;-84
2022/08/10 07:33:40;;;;;;;4.78;3.55;;;23.30;99.90;;;;;;5014027;28;20659;-83
2022/08/10 07:36:08;;;;;;;20.77;3.85;;;23.60;99.90;;;;;;5012897;28;20259;-83
2022/08/10 07:38:36;;;;;;;9.82;3.53;;;23.50;99.90;;;;;;5013056;28;20185;-83
2022/08/10 07:41:04;;;;;;;12.52;4.00;;;23.40;99.90;;;;;;5012965;28;20247;-87
2022/08/10 07:43:34;;;;;;;5.68;3.70;;;22.90;99.90;;;;;;5012716;28;20536;-84
2022/08/10 07:46:03;;;;;;;4.25;3.15;;;22.80;99.90;;;;;;5013631;28;20192;-84
2022/08/10 07:48:32;;;;;;;3.15;2.85;;;22.70;99.90;;;;;;5012710;28;20287;-84
2022/08/10 07:51:01;;;;;;;13.38;3.30;;;22.90;99.90;;;;;;5012659;28;20200;-84
2022/08/10 07:53:32;;;;;;;9.88;3.28;;;22.80;99.90;;;;;;5013707;28;20195;-83
2022/08/10 07:56:00;;;;;;;10.68;3.95;;;22.70;99.90;;;;;;5013903;28;20165;-84
2022/08/10 07:58:30;;;;;;;8.77;3.53;;;22.60;99.90;;;;;;5012724;28;20274;-84
2022/08/10 08:00:58;;;;;;;15.77;4.10;;;22.70;99.90;;;;;;5013763;28;20191;-87
2022/08/10 08:03:27;;;;;;;4.40;3.40;;;22.60;99.90;;;;;;5012440;28;20169;-87
2022/08/10 08:05:55;;;;;;;4.72;2.90;;;22.70;99.90;;;;;;5012437;28;20200;-83
2022/08/10 08:08:22;;;;;;;9.05;2.65;;;23.00;99.90;;;;;;5011689;28;20200;-84
2022/08/10 08:10:48;;;;;;;5.97;4.03;;;23.00;99.90;;;;;;5013421;28;20238;-81
2022/08/10 08:13:15;;;;;;;2.95;2.65;;;23.20;99.90;;;;;;5013607;28;20172;-82
2022/08/10 08:15:42;;;;;;;16.83;4.43;;;23.20;99.90;;;;;;5013658;28;20192;-84
2022/08/10 08:18:10;;;;;;;28.73;3.63;;;23.00;99.90;;;;;;5012945;28;20168;-83
2022/08/10 08:20:38;;;;;;;7.38;3.70;;;23.10;99.90;;;;;;5016111;28;20192;-84
2022/08/10 08:23:04;;;;;;;3.42;3.20;;;23.20;99.90;;;;;;5012060;28;20207;-80
2022/08/10 08:25:31;;;;;;;12.13;3.17;;;23.30;99.90;;;;;;5012773;28;20259;-92
2022/08/10 08:28:00;;;;;;;5.97;3.08;;;23.40;99.90;;;;;;5013626;28;20200;-85
2022/08/10 08:30:27;;;;;;;7.85;2.67;;;23.40;99.90;;;;;;5012197;28;20683;-82
2022/08/10 08:32:54;;;;;;;11.93;2.83;;;23.50;99.90;;;;;;5013310;28;20248;-87
2022/08/10 08:35:21;;;;;;;3.08;2.72;;;23.80;99.90;;;;;;5014042;28;20506;-82
2022/08/10 08:37:48;;;;;;;11.48;2.72;;;24.00;99.90;;;;;;5014563;28;20284;-84
2022/08/10 08:40:27;;;;;;;9.38;3.10;;;24.00;99.90;;;;;;5013417;28;20665;-82
2022/08/10 08:43:13;;;;;;;5.25;2.92;;;24.20;99.90;;;;;;5013160;28;20252;-83
2022/08/10 08:45:58;;;;;;;22.15;3.22;;;24.30;99.90;;;;;;5012651;28;20169;-82
2022/08/10 08:49:01;;;;;;;5.93;3.40;;;24.30;99.90;;;;;;5012434;28;20224;-93
2022/08/10 08:51:47;;;;;;;11.57;2.83;;;24.30;99.90;;;;;;5012192;28;20196;-87
2022/08/10 08:54:45;;;;;;;8.38;2.97;;;24.50;99.90;;;;;;5013336;28;20172;-83
2022/08/10 08:57:45;;;;;;;10.70;2.95;;;24.70;99.90;;;;;;5011986;28;20563;-83
2022/08/10 09:00:17;;;;;;;9.95;2.83;;;24.80;99.90;;;;;;5012305;28;20200;-81
2022/08/10 09:03:09;;;;;;;4.55;2.38;;;24.90;99.90;;;;;;5011082;28;20165;-82
2022/08/10 09:05:50;;;;;;;6.50;2.75;;;25.10;99.90;;;;;;5013085;28;20259;-82
2022/08/10 09:08:40;;;;;;;2.70;2.10;;;25.30;99.90;;;;;;5013903;28;20664;-88
2022/08/10 09:11:31;;;;;;;7.47;2.35;;;25.30;99.90;;;;;;5013592;28;20192;-82
2022/08/10 09:14:07;;;;;;;15.43;2.92;;;25.40;99.90;;;;;;5012027;28;20188;-93
2022/08/10 09:17:10;;;;;;;4.55;3.03;;;25.30;99.90;;;;;;5012929;28;20629;-92
2022/08/10 09:19:47;;;;;;;4.28;2.20;;;25.40;99.90;;;;;;5015407;28;20238;-93
2022/08/10 09:22:36;;;;;;;4.13;2.20;;;25.30;99.90;;;;;;5018100;28;20184;-89
2022/08/10 09:25:19;;;;;;;3.30;2.10;;;25.40;99.90;;;;;;5016358;28;20165;-83
2022/08/10 09:27:47;;;;;;;33.95;4.93;;;25.60;99.90;;;;;;5016868;28;20295;-91
2022/08/10 09:30:24;;;;;;;8.90;2.90;;;25.70;99.90;;;;;;5015754;28;20184;-83
2022/08/10 09:32:59;;;;;;;3.35;2.60;;;25.70;99.90;;;;;;5017781;28;20621;-91
2022/08/10 09:35:52;;;;;;;5.72;2.30;;;25.70;99.90;;;;;;5018261;28;20167;-92
2022/08/10 09:38:43;;;;;;;3.92;2.55;;;25.80;99.90;;;;;;5018578;28;20172;-94
2022/08/10 09:41:44;;;;;;;6.15;2.55;;;25.80;99.90;;;;;;5015324;28;20641;-85
2022/08/10 09:44:49;;;;;;;5.03;1.88;;;26.10;99.90;;;;;;5015810;28;20212;-85
2022/08/10 09:47:29;;;;;;;10.00;2.20;;;26.30;99.90;;;;;;5016555;28;20219;-83
2022/08/10 09:50:04;;;;;;;11.13;2.85;;;26.40;99.90;;;;;;5016697;28;20184;-86
2022/08/10 09:53:07;;;;;;;3.35;2.08;;;26.50;99.90;;;;;;5016827;28;20176;-82
2022/08/10 09:55:53;;;;;;;3.15;2.33;;;26.50;99.90;;;;;;5017041;28;20172;-84
2022/08/10 09:58:30;;;;;;;7.85;2.50;;;26.60;99.90;;;;;;5016601;28;20179;-82
2022/08/10 10:01:05;;;;;;;2.20;1.95;;;26.50;99.90;;;;;;5016083;28;20194;-85
2022/08/10 10:03:58;;;;;;;11.02;3.22;;;26.40;99.90;;;;;;5016060;28;20168;-83
2022/08/10 10:06:52;;;;;;;11.93;3.30;;;26.50;99.90;;;;;;5015796;28;20207;-86
2022/08/10 10:09:27;;;;;;;2.72;2.42;;;26.70;99.90;;;;;;5015863;28;20176;-89
2022/08/10 10:12:24;;;;;;;12.23;2.17;;;26.90;99.90;;;;;;5015389;28;20176;-90
2022/08/10 10:17:45;;;;;;;4.40;2.60;;;27.00;99.90;;;;;;5016912;28;20222;-85
2022/08/10 10:20:29;;;;;;;5.28;2.20;;;27.20;99.90;;;;;;5024760;28;20234;-85
2022/08/10 10:23:21;;;;;;;4.80;2.40;;;27.20;99.90;;;;;;5019791;28;20191;-89
2022/08/10 10:26:00;;;;;;;2.65;2.10;;;27.30;99.90;;;;;;5015697;28;20630;-82
2022/08/10 10:29:09;;;;;;;2.60;1.70;;;27.30;99.90;;;;;;5014589;28;20207;-83
2022/08/10 10:31:44;;;;;;;3.58;2.10;;;27.30;99.90;;;;;;4996872;28;20262;-82
2022/08/10 10:34:34;;;;;;;3.35;1.75;;;27.50;99.90;;;;;;5015412;28;20168;-83
2022/08/10 10:37:01;;;;;;;4.47;2.30;;;27.80;99.90;;;;;;5015215;28;20709;-79
2022/08/10 10:39:29;;;;;;;4.10;2.08;;;27.70;99.90;;;;;;5017031;28;20703;-80
2022/08/10 10:42:17;;;;;;;7.10;2.25;;;27.70;99.90;;;;;;5016384;28;20259;-80
2022/08/10 10:45:16;;;;;;;2.28;2.08;;;27.80;99.90;;;;;;5019051;28;20175;-83
2022/08/10 10:48:08;;;;;;;7.07;1.98;;;27.90;99.90;;;;;;5014460;28;20282;-80
2022/08/10 10:50:38;;;;;;;16.77;2.33;;;28.10;99.90;;;;;;5014708;28;20684;-82
2022/08/10 10:53:25;;;;;;;7.40;2.30;;;28.10;99.90;;;;;;5013547;28;20172;-81
2022/08/10 10:56:23;;;;;;;3.25;2.25;;;28.20;99.90;;;;;;5017441;28;20498;-88
2022/08/10 10:59:21;;;;;;;14.50;2.25;;;28.30;99.90;;;;;;5024054;28;20215;-86
2022/08/10 11:02:15;;;;;;;12.05;1.90;;;28.40;99.90;;;;;;5023725;28;20172;-88
2022/08/10 11:05:20;;;;;;;7.55;1.98;;;28.30;99.90;;;;;;5024372;28;20258;-86
2022/08/10 11:07:56;;;;;;;3.45;1.90;;;28.30;99.90;;;;;;5019294;28;20216;-90
2022/08/10 11:10:41;;;;;;;4.72;1.67;;;28.20;99.90;;;;;;5013351;28;20191;-81
2022/08/10 11:13:28;;;;;;;2.17;1.98;;;28.20;99.90;;;;;;5013745;28;20267;-80
2022/08/10 11:16:23;;;;;;;7.90;2.22;;;28.20;99.90;;;;;;5013905;28;20647;-83
2022/08/10 11:19:12;;;;;;;8.25;2.00;;;28.30;99.90;;;;;;5014909;28;20172;-80
2022/08/10 11:22:02;;;;;;;9.60;2.45;;;28.40;99.90;;;;;;5013956;28;20256;-84
2022/08/10 11:25:01;;;;;;;4.10;1.95;;;28.50;99.10;;;;;;5013872;28;20632;-81
2022/08/10 11:27:51;;;;;;;5.40;2.40;;;28.60;99.10;;;;;;5015034;28;20762;-80
2022/08/10 11:30:23;;;;;;;4.75;2.10;;;28.50;98.10;;;;;;5018262;28;20246;-83
2022/08/10 11:33:27;;;;;;;2.08;1.60;;;28.60;98.30;;;;;;5018741;28;20169;-80
2022/08/10 11:35:59;;;;;;;3.15;2.17;;;28.50;98.40;;;;;;5018088;28;20179;-81
2022/08/10 11:38:49;;;;;;;3.00;1.88;;;28.80;97.60;;;;;;5019885;28;20168;-82
2022/08/10 11:41:43;;;;;;;2.33;1.92;;;28.80;97.90;;;;;;5021494;28;20576;-80
2022/08/10 11:44:35;;;;;;;9.45;1.85;;;28.90;96.90;;;;;;4988206;28;20189;-80
2022/08/10 11:47:08;;;;;;;5.32;1.88;;;29.00;96.30;;;;;;5019823;28;20188;-80
2022/08/10 11:49:44;;;;;;;2.15;1.67;;;29.10;96.40;;;;;;5016402;28;20239;-80
2022/08/10 11:52:19;;;;;;;10.45;1.80;;;29.00;96.20;;;;;;5016903;28;20262;-79
2022/08/10 11:54:53;;;;;;;11.57;2.42;;;29.00;96.40;;;;;;5017446;28;20172;-80
2022/08/10 11:57:21;;;;;;;4.97;1.65;;;29.00;95.50;;;;;;5013511;28;20177;-80
2022/08/10 11:59:56;;;;;;;2.95;1.80;;;29.10;94.90;;;;;;5018535;28;20188;-79
2022/08/10 12:02:42;;;;;;;2.05;1.85;;;29.20;94.40;;;;;;5014635;28;20171;-80
2022/08/10 12:05:21;;;;;;;2.28;1.73;;;29.30;95.00;;;;;;5032198;28;20168;-86
2022/08/10 12:07:50;;;;;;;2.20;1.88;;;29.20;94.50;;;;;;5034164;28;20683;-81
2022/08/10 12:10:19;;;;;;;3.63;1.98;;;29.20;95.30;;;;;;5028607;28;20227;-87
2022/08/10 12:12:54;;;;;;;5.97;1.98;;;29.30;94.80;;;;;;5025040;28;20244;-89
2022/08/10 12:15:46;;;;;;;10.35;2.38;;;29.40;94.60;;;;;;5026943;28;20164;-90
2022/08/10 12:18:26;;;;;;;2.30;1.55;;;29.30;94.40;;;;;;5026562;28;20200;-90
2022/08/10 12:20:57;;;;;;;8.60;1.70;;;29.30;94.00;;;;;;5028773;28;20252;-87
2022/08/10 12:23:34;;;;;;;2.13;1.98;;;29.30;94.10;;;;;;5021804;28;20655;-79
2022/08/10 12:26:19;;;;;;;2.08;1.88;;;29.30;93.90;;;;;;5014595;28;20263;-84
2022/08/10 12:29:04;;;;;;;1.67;1.58;;;29.20;94.00;;;;;;5014909;28;20224;-82
2022/08/10 12:32:05;;;;;;;2.42;2.20;;;29.20;94.20;;;;;;5014444;28;20187;-82
2022/08/10 12:34:45;;;;;;;6.18;1.90;;;29.30;94.00;;;;;;5009995;28;20185;-82
2022/08/10 12:37:11;;;;;;;2.03;1.83;;;29.30;93.70;;;;;;5012210;28;20171;-82
2022/08/10 12:39:50;;;;;;;2.33;1.70;;;29.30;93.80;;;;;;5012686;28;20550;-81
2022/08/10 12:42:24;;;;;;;11.35;2.00;;;29.40;93.90;;;;;;5012349;28;20512;-81
2022/08/10 12:44:58;;;;;;;7.07;1.90;;;29.50;94.10;;;;;;5015042;28;20228;-81
2022/08/10 12:47:50;;;;;;;4.00;1.60;;;29.40;93.80;;;;;;5019491;28;20218;-81
2022/08/10 12:50:20;;;;;;;2.75;1.90;;;29.40;93.60;;;;;;5016090;28;20197;-80
2022/08/10 12:53:01;;;;;;;7.80;2.20;;;29.60;94.00;;;;;;5016450;28;20188;-81
2022/08/10 12:55:31;;;;;;;2.10;1.90;;;29.80;93.70;;;;;;5013184;28;20183;-81
2022/08/10 12:57:58;;;;;;;6.38;3.22;;;29.70;93.40;;;;;;5012801;28;20165;-81
2022/08/10 13:00:33;;;;;;;7.13;2.45;;;29.80;93.00;;;;;;5014126;28;20691;-81
2022/08/10 13:03:01;;;;;;;16.67;2.08;;;29.60;92.90;;;;;;5014520;28;20168;-81
2022/08/10 13:05:28;;;;;;;2.95;1.70;;;29.70;92.50;;;;;;5016159;28;20165;-81
2022/08/10 13:10:53;;;;;;;6.15;1.80;;;29.90;91.60;;;;;;5013711;28;20258;-82
2022/08/10 13:13:26;;;;;;;5.00;1.90;;;29.80;91.50;;;;;;5012715;28;20167;-81
2022/08/10 13:15:55;;;;;;;9.85;2.05;;;29.90;91.50;;;;;;5014559;28;20168;-82
2022/08/10 13:18:28;;;;;;;6.55;2.13;;;30.00;91.80;;;;;;5012133;28;20593;-81
2022/08/10 13:21:03;;;;;;;7.28;2.05;;;30.00;91.90;;;;;;5019084;28;20176;-82
2022/08/10 13:23:34;;;;;;;8.23;2.17;;;29.90;92.10;;;;;;5024884;28;20274;-82
2022/08/10 13:26:01;;;;;;;4.22;1.98;;;29.90;92.00;;;;;;5025943;28;20165;-85
2022/08/10 13:28:37;;;;;;;9.73;2.83;;;29.90;91.70;;;;;;5013108;28;20220;-88
2022/08/10 13:31:09;;;;;;;7.35;2.15;;;29.90;92.30;;;;;;5016051;28;20188;-85